createdAt,value
2019-06-27T03:57:59.355Z,16.07
2019-06-27T04:03:04.814Z,16.10
2019-06-27T04:08:09.542Z,14.58
2019-06-27T04:13:14.268Z,14.13
2019-06-27T04:18:19.056Z,13.28
2019-06-27T04:23:24.113Z,12.70
2019-06-27T04:28:30.783Z,11.40
2019-06-27T04:33:36.149Z,12.05
2019-06-27T04:38:41.122Z,11.95
2019-06-27T04:43:45.662Z,11.70
2019-06-27T04:49:01.497Z,11.43
2019-06-27T04:54:06.135Z,9.93
2019-06-27T04:59:10.794Z,10.58
2019-06-27T05:04:15.738Z,9.33
2019-06-27T05:09:21.521Z,10.43
2019-06-27T05:14:27.077Z,9.40
2019-06-27T05:19:32.242Z,9.38
2019-06-27T05:24:37.212Z,11.93
2019-06-27T05:29:41.941Z,9.70
2019-06-27T05:34:46.762Z,9.53
2019-06-27T05:39:51.377Z,9.68
2019-06-27T05:44:56.360Z,8.58
2019-06-27T05:50:00.876Z,10.72
2019-06-27T05:55:07.276Z,12.40
2019-06-27T06:00:27.690Z,10.25
2019-06-27T06:05:22.409Z,10.75
2019-06-27T06:10:26.775Z,9.45
2019-06-27T06:15:31.649Z,8.50
2019-06-27T06:20:36.722Z,9.00
2019-06-27T06:25:41.468Z,8.73
2019-06-27T06:30:45.957Z,8.88
2019-06-27T06:35:50.588Z,8.70
2019-06-27T06:40:55.754Z,8.88
2019-06-27T06:46:01.095Z,8.75
2019-06-27T06:51:05.845Z,7.45
2019-06-27T06:56:10.583Z,8.70
2019-06-27T07:01:15.246Z,7.30
2019-06-27T07:06:22.944Z,8.33
2019-06-27T07:11:28.017Z,8.88
2019-06-27T07:16:32.764Z,10.08
2019-06-27T07:21:37.247Z,8.93
2019-06-27T07:26:42.499Z,8.80
2019-06-27T07:31:48.430Z,8.70
2019-06-27T07:36:53.177Z,8.03
2019-06-27T07:41:57.737Z,8.35
2019-06-27T07:47:02.180Z,7.95
2019-06-27T07:52:07.966Z,8.13
2019-06-27T07:57:13.869Z,8.68
2019-06-27T08:02:18.369Z,8.63
2019-06-27T08:07:24.036Z,8.53
2019-06-27T08:12:28.770Z,8.63
2019-06-27T08:17:33.403Z,9.88
2019-06-27T08:22:38.520Z,9.28
2019-06-27T08:27:42.945Z,10.20
2019-06-27T08:32:47.707Z,9.30
2019-06-27T08:37:52.511Z,9.08
2019-06-27T08:42:57.269Z,9.20
2019-06-27T08:48:01.572Z,8.83
2019-06-27T08:53:06.177Z,10.18
2019-06-27T08:58:10.903Z,10.13
2019-06-27T09:03:15.357Z,9.88
2019-06-27T09:08:19.712Z,9.00
2019-06-27T09:13:25.577Z,9.53
2019-06-27T09:18:30.102Z,9.68
2019-06-27T09:23:37.465Z,9.43
2019-06-27T09:28:40.645Z,10.40
2019-06-27T09:33:45.445Z,10.63
2019-06-27T09:38:50.131Z,10.35
2019-06-27T09:43:54.564Z,10.13
2019-06-27T09:48:59.375Z,10.90
2019-06-27T09:54:04.680Z,11.10
2019-06-27T09:59:10.236Z,11.40
2019-06-27T10:04:14.614Z,11.48
2019-06-27T10:09:19.331Z,10.72
2019-06-27T10:14:24.280Z,12.15
2019-06-27T10:19:29.266Z,11.68
2019-06-27T10:24:34.223Z,11.30
2019-06-27T10:29:38.996Z,12.68
2019-06-27T10:34:43.375Z,13.70
2019-06-27T10:39:48.530Z,13.13
2019-06-27T10:44:54.363Z,13.45
2019-06-27T10:50:01.082Z,12.93
2019-06-27T10:55:05.805Z,13.30
2019-06-27T11:00:11.024Z,13.78
2019-06-27T11:05:15.473Z,13.85
2019-06-27T11:10:20.716Z,14.40
2019-06-27T11:15:25.702Z,13.78
2019-06-27T11:20:30.090Z,12.80
2019-06-27T11:25:34.896Z,14.15
2019-06-27T11:30:39.292Z,13.38
2019-06-27T11:35:44.302Z,12.88
2019-06-27T11:40:48.768Z,13.90
2019-06-27T11:45:53.234Z,12.63
2019-06-27T11:50:57.646Z,13.40
2019-06-27T11:56:02.358Z,13.85
2019-06-27T12:01:07.105Z,13.30
2019-06-27T12:06:12.568Z,13.75
2019-06-27T12:11:17.134Z,12.90
2019-06-27T12:16:21.876Z,12.53
2019-06-27T12:21:26.411Z,12.70
2019-06-27T12:26:32.308Z,13.62
2019-06-27T12:31:37.204Z,13.53
2019-06-27T12:36:41.576Z,12.15
2019-06-27T12:41:46.423Z,12.50
2019-06-27T12:46:52.111Z,12.43
2019-06-27T12:51:57.236Z,12.73
2019-06-27T12:57:02.353Z,12.10
2019-06-27T13:02:07.222Z,11.65
2019-06-27T13:07:13.584Z,12.18
2019-06-27T13:12:17.920Z,12.53
2019-06-27T13:17:22.647Z,11.97
2019-06-27T13:22:27.615Z,12.15
2019-06-27T13:27:32.344Z,11.55
2019-06-27T13:32:37.016Z,11.80
2019-06-27T13:37:41.531Z,11.83
2019-06-27T13:42:46.784Z,11.60
2019-06-27T13:47:51.454Z,11.33
2019-06-27T13:52:57.165Z,10.90
2019-06-27T13:58:02.446Z,10.48
2019-06-27T14:03:07.216Z,10.53
2019-06-27T14:08:11.880Z,11.35
2019-06-27T14:13:16.659Z,10.58
2019-06-27T14:18:22.585Z,10.03
2019-06-27T14:23:27.009Z,10.30
2019-06-27T14:28:32.204Z,9.78
2019-06-27T14:33:37.323Z,9.58
2019-06-27T14:38:43.109Z,9.05
2019-06-27T14:43:48.294Z,9.03
2019-06-27T14:48:56.864Z,8.98
2019-06-27T14:54:00.288Z,8.95
2019-06-27T14:59:04.779Z,8.70
2019-06-27T15:04:09.397Z,9.33
2019-06-27T15:09:16.394Z,9.20
2019-06-27T15:14:24.175Z,8.90
2019-06-27T15:19:29.466Z,9.23
2019-06-27T15:24:34.213Z,9.13
2019-06-27T15:29:39.478Z,8.78
2019-06-27T15:34:44.391Z,9.23
2019-06-27T15:39:52.719Z,10.43
2019-06-27T15:44:57.891Z,9.20
2019-06-27T15:50:02.728Z,11.18
2019-06-27T15:55:09.486Z,9.98
2019-06-27T16:00:14.317Z,10.58
2019-06-27T16:05:19.039Z,10.35
2019-06-27T16:10:23.607Z,11.38
2019-06-27T16:15:28.557Z,11.30
2019-06-27T16:20:33.157Z,11.12
2019-06-27T16:25:38.649Z,11.15
2019-06-27T16:30:43.736Z,11.48
2019-06-27T16:35:48.353Z,10.78
2019-06-27T16:40:53.841Z,10.80
2019-06-27T16:45:59.003Z,10.78
2019-06-27T16:51:04.660Z,10.65
2019-06-27T16:56:10.593Z,10.78
2019-06-27T17:01:14.983Z,10.07
2019-06-27T17:06:20.463Z,9.08
2019-06-27T17:11:28.418Z,10.10
2019-06-27T17:16:37.699Z,10.13
2019-06-27T17:21:42.501Z,10.82
2019-06-27T17:26:47.333Z,10.98
2019-06-27T17:31:52.459Z,10.45
2019-06-27T17:36:58.267Z,9.93
2019-06-27T17:42:03.359Z,8.78
2019-06-27T17:47:09.372Z,7.47
2019-06-27T17:52:14.155Z,7.15
2019-06-27T17:57:19.720Z,6.60
2019-06-27T18:02:25.986Z,5.97
2019-06-27T18:07:31.199Z,5.50
2019-06-27T18:12:36.055Z,5.10
2019-06-27T18:17:40.635Z,4.90
2019-06-27T18:22:47.377Z,4.60
2019-06-27T18:27:52.802Z,4.00
2019-06-27T18:32:58.779Z,4.34
2019-06-27T18:38:03.938Z,4.00
2019-06-27T18:43:08.720Z,3.22
2019-06-27T18:48:13.461Z,3.43
2019-06-27T18:53:18.657Z,3.27
2019-06-27T18:58:23.640Z,3.02
2019-06-27T19:03:29.623Z,3.15
2019-06-27T19:08:34.673Z,2.78
2019-06-27T19:13:39.418Z,2.40
2019-06-27T19:18:45.006Z,2.10
2019-06-27T19:24:04.070Z,2.30
2019-06-27T19:29:11.509Z,1.92
2019-06-27T19:34:16.948Z,1.98
2019-06-27T19:39:23.896Z,1.92
2019-06-27T19:44:28.684Z,1.95
2019-06-27T19:49:33.536Z,2.15
2019-06-27T19:54:38.776Z,2.20
2019-06-27T19:59:43.248Z,2.10
2019-06-27T20:04:49.441Z,2.05
2019-06-27T20:09:54.190Z,2.10
2019-06-27T20:14:58.789Z,2.00
2019-06-27T20:20:03.581Z,1.50
2019-06-27T20:25:08.231Z,1.30
2019-06-27T20:30:12.804Z,2.25
2019-06-27T20:35:18.722Z,1.00
2019-06-27T20:40:23.794Z,1.10
